Time;durP1;ratioP1;P1;durP2;ratioP2;P2;SDS_P1;SDS_P2;PMS_P1;PMS_P2;Temp;Humidity;BMP_temperature;BMP_pressure;BME280_temperature;BME280_humidity;BME280_pressure;Samples;Min_cycle;Max_cycle;Signal;HPM_P1;HPM_P2
2021/12/03 00:00:24;;;;;;;123.70;51.00;;;;;;;-1.02;100.00;98059.50;5015702;28;20171;-85
2021/12/03 00:02:49;;;;;;;125.87;52.30;;;;;;;0.96;100.00;98405.00;4999550;28;20163;-85
2021/12/03 00:05:15;;;;;;;109.53;45.97;;;;;;;-0.39;100.00;98166.34;4996448;28;20760;-86
2021/12/03 00:07:42;;;;;;;80.17;31.67;;;;;;;-0.64;100.00;98197.03;4994278;28;20182;-84
2021/12/03 00:10:11;;;;;;;101.87;45.03;;;;;;;1.54;100.00;98591.59;4998459;28;20596;-85
2021/12/03 00:12:36;;;;;;;100.83;43.90;;;;;;;0.13;100.00;98335.63;5015067;28;20410;-85
2021/12/03 00:15:04;;;;;;;92.20;41.83;;;;;;;-0.29;100.00;98275.56;5012646;28;20505;-85
2021/12/03 00:17:29;;;;;;;95.57;40.87;;;;;;;-0.75;100.00;98212.84;5014741;28;20162;-84
2021/12/03 00:19:56;;;;;;;99.03;42.97;;;;;;;-0.30;100.00;98293.72;5013961;28;20637;-84
2021/12/03 00:22:22;;;;;;;70.00;31.80;;;;;;;-0.54;100.00;98245.69;5014246;28;20155;-85
2021/12/03 00:24:47;;;;;;;73.97;32.70;;;;;;;-0.69;100.00;98183.41;5014679;28;20445;-85
2021/12/03 00:27:13;;;;;;;88.93;38.67;;;;;;;-0.79;100.00;98161.19;5014303;28;20163;-85
2021/12/03 00:29:38;;;;;;;77.70;33.63;;;;;;;1.23;100.00;98476.53;5013544;28;20167;-85
2021/12/03 00:32:04;;;;;;;84.07;37.10;;;;;;;-0.21;100.00;98265.34;5014302;28;20159;-85
2021/12/03 00:34:29;;;;;;;69.77;30.63;;;;;;;-1.39;100.00;98080.09;5014580;28;20301;-85
2021/12/03 00:36:55;;;;;;;82.97;37.17;;;;;;;0.94;100.00;98526.94;5013832;28;20540;-85
2021/12/03 00:39:21;;;;;;;105.93;40.63;;;;;;;0.23;100.00;98365.31;5013309;28;20163;-85
2021/12/03 00:41:52;;;;;;;75.23;28.70;;;;;;;-1.01;100.00;98192.78;5014149;28;20159;-85
2021/12/03 00:44:19;;;;;;;83.50;38.13;;;;;;;-0.02;100.00;98334.59;5012552;28;20602;-85
2021/12/03 00:46:45;;;;;;;86.83;38.30;;;;;;;-0.71;100.00;98218.84;5014813;28;20394;-84
2021/12/03 00:49:10;;;;;;;80.27;35.40;;;;;;;-0.61;100.00;98237.00;5013970;28;20447;-85
2021/12/03 00:51:36;;;;;;;84.60;37.10;;;;;;;0.72;100.00;98491.41;4996169;28;20175;-85
2021/12/03 00:54:02;;;;;;;91.87;37.50;;;;;;;-0.82;100.00;98199.88;5013632;28;20162;-85
2021/12/03 00:56:27;;;;;;;82.80;35.43;;;;;;;-0.75;100.00;98215.31;4995616;28;20698;-84
2021/12/03 00:58:52;;;;;;;79.00;33.87;;;;;;;1.34;100.00;98600.25;5012110;28;20696;-85
2021/12/03 01:01:18;;;;;;;78.60;35.57;;;;;;;-0.70;100.00;98246.28;5013326;28;20242;-85
2021/12/03 01:03:44;;;;;;;73.30;33.33;;;;;;;1.56;100.00;98593.41;4996130;28;20174;-86
2021/12/03 01:06:09;;;;;;;75.90;31.47;;;;;;;0.93;100.00;98526.84;5013973;28;20229;-85
2021/12/03 01:08:35;;;;;;;74.80;32.40;;;;;;;0.41;100.00;98416.28;5013647;28;20621;-85
2021/12/03 01:11:05;;;;;;;74.73;32.03;;;;;;;1.19;100.00;98575.16;5015267;28;20162;-84
2021/12/03 01:13:31;;;;;;;73.80;31.27;;;;;;;1.13;100.00;98573.88;5013353;28;20409;-85
2021/12/03 01:15:57;;;;;;;82.73;34.47;;;;;;;0.65;100.00;98453.56;5011518;28;20402;-85
2021/12/03 01:18:23;;;;;;;78.97;34.63;;;;;;;1.26;100.00;98559.00;5013547;28;20163;-84
2021/12/03 01:20:49;;;;;;;59.73;24.53;;;;;;;1.08;100.00;98495.47;5012993;28;20158;-85
2021/12/03 01:23:14;;;;;;;76.17;33.83;;;;;;;1.04;100.00;98461.16;5011618;28;20929;-84
2021/12/03 01:25:40;;;;;;;80.00;35.57;;;;;;;-1.19;100.00;98057.50;4995946;28;20277;-84
2021/12/03 01:28:07;;;;;;;75.00;33.87;;;;;;;-1.03;100.00;98080.09;5014104;28;20170;-84
2021/12/03 01:30:33;;;;;;;72.30;34.47;;;;;;;1.15;100.00;98427.81;5011767;28;20174;-85
2021/12/03 01:33:01;;;;;;;77.63;35.43;;;;;;;1.83;100.00;98548.53;5011567;28;20906;-85
2021/12/03 01:35:28;;;;;;;78.40;34.57;;;;;;;1.23;100.00;98416.72;5016738;28;20165;-85
2021/12/03 01:37:53;;;;;;;70.77;28.93;;;;;;;0.51;100.00;98314.09;5015336;28;20445;-86
2021/12/03 01:40:22;;;;;;;82.23;37.10;;;;;;;0.28;100.00;98333.25;5016784;28;20437;-85
2021/12/03 01:42:49;;;;;;;74.67;35.57;;;;;;;1.58;100.00;98551.09;5017032;28;20175;-85
2021/12/03 01:45:18;;;;;;;81.30;36.53;;;;;;;0.95;100.00;98434.00;5016327;28;21024;-86
2021/12/03 01:47:46;;;;;;;84.57;37.23;;;;;;;0.39;100.00;98314.91;4999466;28;20504;-85
2021/12/03 01:50:12;;;;;;;80.43;36.33;;;;;;;0.98;100.00;98415.91;5015426;28;20417;-85
2021/12/03 01:52:38;;;;;;;82.83;37.10;;;;;;;-0.51;100.00;98178.81;5017291;28;20424;-85
2021/12/03 01:55:06;;;;;;;77.47;36.13;;;;;;;0.43;100.00;98325.19;5017096;28;20891;-86
2021/12/03 01:57:32;;;;;;;78.50;35.27;;;;;;;0.10;100.00;98260.78;5016257;28;20460;-87
2021/12/03 01:59:57;;;;;;;83.30;38.27;;;;;;;1.53;100.00;98473.50;5016943;28;20405;-86
2021/12/03 02:02:23;;;;;;;75.20;35.70;;;;;;;-0.71;100.00;98097.97;5001046;28;20170;-85
2021/12/03 02:04:48;;;;;;;78.23;36.47;;;;;;;-1.43;100.00;97949.16;5016421;28;20648;-85
2021/12/03 02:07:14;;;;;;;94.27;40.90;;;;;;;-0.47;100.00;98110.28;5016413;28;20169;-86
2021/12/03 02:09:40;;;;;;;90.33;41.70;;;;;;;-0.21;100.00;98163.41;5017359;28;20577;-86
2021/12/03 02:12:06;;;;;;;90.93;42.30;;;;;;;-0.82;100.00;98045.88;5016629;28;20429;-85
2021/12/03 02:14:31;;;;;;;88.67;38.53;;;;;;;0.62;100.00;98286.53;4998606;28;20170;-85
2021/12/03 02:16:57;;;;;;;89.00;38.23;;;;;;;-0.97;100.00;98010.13;5016098;28;20167;-86
2021/12/03 02:19:22;;;;;;;72.07;34.27;;;;;;;1.97;100.00;98506.22;5017545;28;20170;-85
2021/12/03 02:21:48;;;;;;;77.47;34.80;;;;;;;-0.26;100.00;98162.25;5025554;28;20230;-83
2021/12/03 02:24:14;;;;;;;79.00;35.20;;;;;;;1.19;100.00;98444.69;5020979;28;20278;-85
2021/12/03 02:26:41;;;;;;;71.13;34.60;;;;;;;0.24;100.00;98326.38;5016498;28;20170;-85
2021/12/03 02:29:07;;;;;;;81.17;37.37;;;;;;;0.00;100.00;98258.47;5016617;28;20405;-85
2021/12/03 02:31:33;;;;;;;85.53;38.27;;;;;;;1.02;100.00;98410.34;5016691;28;20870;-89
2021/12/03 02:33:59;;;;;;;118.13;59.17;;;;;;;-0.95;100.00;98035.91;4998446;28;20418;-85
2021/12/03 02:36:25;;;;;;;96.73;46.13;;;;;;;1.86;100.00;98537.13;5016274;28;20167;-85
2021/12/03 02:38:51;;;;;;;102.00;53.00;;;;;;;0.80;100.00;98383.19;5015835;28;20665;-85
2021/12/03 02:41:17;;;;;;;82.17;38.63;;;;;;;1.68;100.00;98509.38;5014610;28;20194;-85
2021/12/03 02:43:43;;;;;;;68.90;32.00;;;;;;;-0.09;100.00;98250.41;5016221;28;20469;-85
2021/12/03 02:46:08;;;;;;;65.27;29.77;;;;;;;-0.36;100.00;98188.91;5014678;28;20194;-85
2021/12/03 02:48:36;;;;;;;59.50;27.33;;;;;;;1.63;100.00;98520.69;5015450;28;20174;-86
2021/12/03 02:51:04;;;;;;;72.03;33.70;;;;;;;0.63;100.00;98335.56;5015155;28;20181;-85
2021/12/03 02:53:29;;;;;;;72.43;33.67;;;;;;;1.72;100.00;98507.94;5026583;28;20449;-84
2021/12/03 02:55:55;;;;;;;75.87;34.93;;;;;;;-0.01;100.00;98209.47;5022030;28;20461;-86
2021/12/03 02:58:21;;;;;;;65.97;32.47;;;;;;;1.73;100.00;98508.03;5017149;28;20170;-85
2021/12/03 03:00:48;;;;;;;73.37;34.13;;;;;;;0.13;100.00;98243.56;5015208;28;20186;-85
2021/12/03 03:03:14;;;;;;;78.10;34.77;;;;;;;1.72;100.00;98500.47;5017019;28;20402;-85
2021/12/03 03:05:39;;;;;;;52.80;23.00;;;;;;;-0.03;100.00;98241.69;5016119;28;20441;-86
2021/12/03 03:08:05;;;;;;;77.73;35.77;;;;;;;0.11;100.00;98240.09;5015702;28;20687;-85
2021/12/03 03:10:35;;;;;;;68.17;29.63;;;;;;;1.89;100.00;98507.38;5015046;28;20611;-85
2021/12/03 03:13:01;;;;;;;75.97;34.73;;;;;;;1.92;100.00;98492.59;5015070;28;20190;-85
2021/12/03 03:15:27;;;;;;;72.53;33.93;;;;;;;1.96;100.00;98514.47;5014197;28;20445;-86
2021/12/03 03:17:53;;;;;;;86.87;40.17;;;;;;;1.20;100.00;98379.13;5015664;28;20163;-86
2021/12/03 03:20:19;;;;;;;73.27;34.40;;;;;;;1.86;100.00;98488.84;5016355;28;20424;-86
2021/12/03 03:22:47;;;;;;;70.10;32.90;;;;;;;0.10;100.00;98228.44;4998338;28;20516;-86
2021/12/03 03:25:15;;;;;;;69.30;32.67;;;;;;;-0.36;100.00;98172.38;5013528;28;20191;-85
2021/12/03 03:27:42;;;;;;;72.03;34.00;;;;;;;0.31;100.00;98284.56;5013395;28;20421;-85
2021/12/03 03:30:11;;;;;;;42.83;21.17;;;;;;;-0.86;100.00;98139.22;5013404;28;20409;-86
2021/12/03 03:32:38;;;;;;;64.97;31.03;;;;;;;0.79;100.00;98390.56;5014799;28;20484;-85
2021/12/03 03:35:03;;;;;;;63.50;30.63;;;;;;;0.82;100.00;98354.28;5014642;28;20410;-86
2021/12/03 03:37:29;;;;;;;71.53;32.93;;;;;;;-1.02;100.00;98044.59;5014722;28;20433;-85
2021/12/03 03:39:54;;;;;;;66.60;29.90;;;;;;;1.61;100.00;98492.31;5017668;28;20167;-84
2021/12/03 03:42:20;;;;;;;67.53;34.47;;;;;;;0.88;100.00;98373.75;5018906;28;20241;-85
2021/12/03 03:44:45;;;;;;;77.30;35.77;;;;;;;1.71;100.00;98514.56;5005307;28;20214;-86
2021/12/03 03:47:12;;;;;;;72.03;32.30;;;;;;;1.67;100.00;98516.78;4995414;28;20171;-85
2021/12/03 03:49:38;;;;;;;91.37;41.23;;;;;;;-0.97;100.00;98015.09;4996641;28;20226;-85
2021/12/03 03:52:04;;;;;;;53.23;23.37;;;;;;;0.37;100.00;98241.78;4995096;28;20426;-85
2021/12/03 03:54:30;;;;;;;77.63;36.00;;;;;;;1.32;100.00;98449.69;5002910;28;20410;-84
2021/12/03 03:56:56;;;;;;;81.70;38.63;;;;;;;1.82;100.00;98495.28;4993821;28;20471;-85
2021/12/03 03:59:22;;;;;;;82.20;34.07;;;;;;;0.91;100.00;98381.38;4995818;28;20222;-87
2021/12/03 04:01:49;;;;;;;50.83;22.90;;;;;;;-1.55;100.00;97966.56;4995151;28;20163;-86
2021/12/03 04:04:15;;;;;;;74.83;36.07;;;;;;;1.88;100.00;98520.63;4994624;28;20190;-85
2021/12/03 04:06:41;;;;;;;90.43;40.63;;;;;;;-1.73;100.00;97965.31;4994658;28;20417;-84
2021/12/03 04:09:07;;;;;;;95.77;41.37;;;;;;;0.96;100.00;98448.19;4994676;28;20937;-85
2021/12/03 04:11:33;;;;;;;81.03;37.13;;;;;;;1.12;100.00;98517.34;4994639;28;20167;-85
2021/12/03 04:13:58;;;;;;;73.90;36.47;;;;;;;0.75;100.00;98396.09;4994552;28;20258;-84
2021/12/03 04:16:23;;;;;;;74.07;36.20;;;;;;;-1.21;100.00;98116.13;4994909;28;20167;-84
2021/12/03 04:18:49;;;;;;;112.57;44.70;;;;;;;-0.85;100.00;98138.44;4994842;28;20164;-85
2021/12/03 04:21:16;;;;;;;88.53;39.90;;;;;;;-0.68;100.00;98134.59;4996844;28;20202;-85
2021/12/03 04:23:42;;;;;;;94.67;41.50;;;;;;;1.50;100.00;98532.28;5000305;28;20202;-84
2021/12/03 04:26:08;;;;;;;71.47;34.23;;;;;;;1.49;100.00;98521.44;4996750;28;20504;-85
2021/12/03 04:28:33;;;;;;;90.03;36.53;;;;;;;-0.95;100.00;98133.63;4993370;28;20848;-84
2021/12/03 04:31:00;;;;;;;97.43;44.47;;;;;;;1.59;100.00;98513.78;4994426;28;20406;-84
2021/12/03 04:33:26;;;;;;;90.30;42.07;;;;;;;1.73;100.00;98527.97;4994211;28;20191;-85
2021/12/03 04:35:53;;;;;;;148.37;60.53;;;;;;;-0.54;100.00;98175.25;4992962;28;20926;-85
2021/12/03 04:38:19;;;;;;;141.43;54.43;;;;;;;1.63;100.00;98530.66;4994416;28;20168;-85
2021/12/03 04:40:44;;;;;;;117.03;47.07;;;;;;;-0.19;100.00;98208.25;4994014;28;20410;-85
2021/12/03 04:43:11;;;;;;;112.67;47.47;;;;;;;1.12;100.00;98417.66;4994127;28;20410;-85
2021/12/03 04:45:37;;;;;;;68.03;33.17;;;;;;;0.93;100.00;98419.75;4993814;28;20202;-85
2021/12/03 04:48:04;;;;;;;65.30;31.73;;;;;;;-0.02;100.00;98231.00;4993881;28;20410;-84
2021/12/03 04:50:32;;;;;;;87.00;39.93;;;;;;;1.63;100.00;98529.81;4976352;28;20179;-84
2021/12/03 04:52:58;;;;;;;46.93;21.90;;;;;;;1.45;100.00;98546.09;4976710;28;20415;-86
2021/12/03 04:55:25;;;;;;;62.97;29.83;;;;;;;0.67;100.00;98399.72;4994084;28;20839;-85
2021/12/03 04:57:53;;;;;;;68.20;29.10;;;;;;;1.37;100.00;98545.59;4992582;28;20314;-86
2021/12/03 05:00:33;;;;;;;68.13;29.50;;;;;;;0.08;100.00;98334.47;4993760;28;20465;-85
2021/12/03 05:03:00;;;;;;;72.73;29.13;;;;;;;0.37;100.00;98376.19;4994021;28;20406;-85
2021/12/03 05:05:30;;;;;;;89.70;39.03;;;;;;;1.46;100.00;98537.81;5011225;28;20461;-85
2021/12/03 05:07:58;;;;;;;85.77;33.07;;;;;;;-0.54;100.00;98185.19;5011717;28;20410;-86
2021/12/03 05:10:27;;;;;;;76.63;34.83;;;;;;;0.81;100.00;98493.66;5013068;28;20418;-84
2021/12/03 05:13:06;;;;;;;111.20;45.20;;;;;;;-0.92;100.00;98183.50;5028211;28;20621;-86
2021/12/03 05:15:33;;;;;;;64.80;30.63;;;;;;;-1.55;100.00;98085.66;5016912;28;20409;-85
2021/12/03 05:17:59;;;;;;;258.20;103.77;;;;;;;0.18;100.00;98371.63;5014906;28;20444;-85
2021/12/03 05:20:25;;;;;;;111.53;47.03;;;;;;;1.43;100.00;98540.16;5013325;28;20405;-85
2021/12/03 05:22:53;;;;;;;72.43;33.77;;;;;;;0.91;100.00;98444.53;5013404;28;20175;-86
2021/12/03 05:25:19;;;;;;;94.17;42.60;;;;;;;1.83;100.00;98594.31;5012894;28;20336;-86
2021/12/03 05:27:45;;;;;;;119.00;48.07;;;;;;;-0.83;100.00;98199.03;5013067;28;20401;-85
2021/12/03 05:30:11;;;;;;;117.97;50.57;;;;;;;-0.84;100.00;98150.09;5012764;28;20410;-86
2021/12/03 05:32:37;;;;;;;112.17;53.00;;;;;;;1.62;100.00;98573.81;5013381;28;20189;-86
2021/12/03 05:35:04;;;;;;;66.03;32.77;;;;;;;1.15;100.00;98448.59;5015138;28;20194;-86
2021/12/03 05:37:29;;;;;;;56.30;27.73;;;;;;;-0.48;100.00;98179.03;5012503;28;20662;-86
2021/12/03 05:39:54;;;;;;;69.00;31.23;;;;;;;-0.08;100.00;98262.03;5012754;28;20488;-86
2021/12/03 05:42:20;;;;;;;66.33;31.97;;;;;;;1.72;100.00;98561.19;5011448;28;20174;-86
2021/12/03 05:44:45;;;;;;;144.47;59.87;;;;;;;-0.01;100.00;98266.69;5012455;28;20586;-86
2021/12/03 05:47:11;;;;;;;81.23;32.97;;;;;;;0.13;100.00;98300.78;5011154;28;20613;-85
2021/12/03 05:49:36;;;;;;;98.93;43.57;;;;;;;-0.28;100.00;98187.78;5012690;28;20159;-85
2021/12/03 05:52:02;;;;;;;71.43;33.43;;;;;;;0.60;100.00;98359.50;5012519;28;20552;-84
2021/12/03 05:54:28;;;;;;;47.30;21.17;;;;;;;1.92;100.00;98579.94;5013185;28;20589;-84
2021/12/03 05:56:54;;;;;;;102.83;47.50;;;;;;;-0.07;100.00;98274.59;5003259;28;20934;-85
2021/12/03 05:59:19;;;;;;;68.23;31.30;;;;;;;-0.56;100.00;98229.84;5012513;28;20414;-85
2021/12/03 06:01:45;;;;;;;86.90;38.63;;;;;;;1.56;100.00;98565.97;5012711;28;20171;-85
2021/12/03 06:04:11;;;;;;;149.60;74.47;;;;;;;0.94;100.00;98448.84;5013164;28;20170;-85
2021/12/03 06:06:36;;;;;;;60.23;28.90;;;;;;;0.19;100.00;98326.09;5011991;28;20210;-84
2021/12/03 06:09:04;;;;;;;72.97;32.03;;;;;;;-1.18;100.00;98113.81;5013405;28;20163;-85
2021/12/03 06:11:29;;;;;;;57.03;28.97;;;;;;;1.72;100.00;98600.25;5013505;28;20163;-84
2021/12/03 06:13:55;;;;;;;68.37;30.40;;;;;;;1.83;100.00;98596.81;5012079;28;20445;-84
2021/12/03 06:16:20;;;;;;;52.17;26.10;;;;;;;0.22;100.00;98331.22;5012155;28;20159;-84
2021/12/03 06:18:46;;;;;;;117.47;53.50;;;;;;;0.70;100.00;98427.31;5012562;28;20163;-83
2021/12/03 06:21:12;;;;;;;90.43;48.13;;;;;;;1.43;100.00;98472.84;5014242;28;20177;-85
2021/12/03 06:23:39;;;;;;;70.47;35.23;;;;;;;-1.00;100.00;98072.00;5014865;28;20202;-86
2021/12/03 06:26:06;;;;;;;60.93;31.90;;;;;;;-0.03;100.00;98251.63;5015737;28;21035;-84
2021/12/03 06:28:32;;;;;;;55.13;28.00;;;;;;;-1.66;100.00;97952.59;5016990;28;20413;-85
2021/12/03 06:30:59;;;;;;;81.00;41.87;;;;;;;2.41;100.00;98588.00;4998497;28;20480;-85
2021/12/03 06:33:25;;;;;;;63.43;30.20;;;;;;;2.49;100.00;98606.81;5014052;28;20464;-84
2021/12/03 06:36:12;;;;;;;70.67;33.67;;;;;;;2.66;100.00;98622.06;5018733;28;20409;-86
2021/12/03 06:38:38;;;;;;;76.53;39.07;;;;;;;1.89;100.00;98541.44;4975631;28;20475;-84
2021/12/03 06:41:05;;;;;;;107.17;50.97;;;;;;;2.04;100.00;98552.38;4975056;28;20510;-85
2021/12/03 06:43:31;;;;;;;65.27;31.83;;;;;;;2.61;100.00;98635.06;4957005;28;20444;-86
2021/12/03 06:45:56;;;;;;;66.37;33.03;;;;;;;2.77;100.00;98621.09;4972608;28;20459;-85
2021/12/03 06:48:22;;;;;;;149.63;66.00;;;;;;;1.52;100.00;98478.38;4973950;28;20575;-85
2021/12/03 06:50:49;;;;;;;69.07;29.03;;;;;;;-0.05;100.00;98259.75;4974494;28;20192;-86
2021/12/03 06:53:16;;;;;;;69.93;29.77;;;;;;;0.32;100.00;98258.06;4958067;28;20245;-84
2021/12/03 06:55:51;;;;;;;63.43;29.20;;;;;;;2.43;100.00;98588.94;4947811;28;20467;-86
2021/12/03 06:58:19;;;;;;;64.27;28.80;;;;;;;1.10;100.00;98345.28;4973929;28;20458;-85
2021/12/03 07:00:47;;;;;;;65.47;29.43;;;;;;;1.43;100.00;98336.53;4974380;28;20964;-85
2021/12/03 07:03:13;;;;;;;56.80;28.30;;;;;;;3.21;100.00;98630.41;4974157;28;21070;-84
2021/12/03 07:05:38;;;;;;;54.77;28.03;;;;;;;0.19;100.00;98178.41;4957066;28;20598;-85
2021/12/03 07:08:04;;;;;;;66.67;29.17;;;;;;;-0.41;100.00;98113.19;4971773;28;20440;-84
2021/12/03 07:10:30;;;;;;;62.93;29.37;;;;;;;1.63;100.00;98445.88;4940698;29;20260;-84
2021/12/03 07:12:56;;;;;;;53.97;27.60;;;;;;;0.20;100.00;98161.09;4955994;29;20172;-85
2021/12/03 07:15:22;;;;;;;84.33;36.60;;;;;;;0.01;100.00;98178.09;4965926;28;20422;-86
2021/12/03 07:17:50;;;;;;;82.27;35.67;;;;;;;0.68;100.00;98306.84;5005385;28;20183;-86
2021/12/03 07:20:19;;;;;;;123.13;44.90;;;;;;;0.48;100.00;98258.28;4998513;28;20500;-85
2021/12/03 07:22:45;;;;;;;120.20;46.70;;;;;;;3.19;100.00;98676.94;4999010;28;20473;-85
2021/12/03 07:25:11;;;;;;;59.77;28.77;;;;;;;2.26;100.00;98516.34;5020454;28;20980;-86
2021/12/03 07:27:41;;;;;;;55.60;28.10;;;;;;;2.64;100.00;98536.16;5029512;28;20259;-85
2021/12/03 07:30:13;;;;;;;72.57;36.30;;;;;;;3.28;100.00;98582.47;5031276;28;20439;-85
2021/12/03 07:32:39;;;;;;;67.70;36.30;;;;;;;4.16;100.00;98654.34;5034315;28;20440;-85
2021/12/03 07:35:07;;;;;;;73.70;36.70;;;;;;;3.97;100.00;98640.72;5025357;28;20422;-85
2021/12/03 07:37:33;;;;;;;79.50;39.10;;;;;;;3.07;100.00;98503.72;5020735;28;20413;-87
2021/12/03 07:40:05;;;;;;;94.33;38.83;;;;;;;1.54;99.91;98195.09;4998785;28;20412;-85
2021/12/03 07:42:31;;;;;;;74.23;34.53;;;;;;;4.96;97.29;98665.47;5029400;28;20177;-86
2021/12/03 07:44:57;;;;;;;72.43;33.97;;;;;;;2.17;95.42;98195.44;5017262;28;20489;-86
2021/12/03 07:47:22;;;;;;;80.57;41.57;;;;;;;3.39;95.14;98337.19;5015881;28;20414;-87
2021/12/03 07:49:49;;;;;;;120.87;57.47;;;;;;;5.46;95.88;98664.72;5015807;28;20174;-87
2021/12/03 07:52:16;;;;;;;62.60;32.53;;;;;;;2.87;94.38;98250.16;5014133;28;20171;-87
2021/12/03 07:54:42;;;;;;;43.17;23.70;;;;;;;4.60;92.66;98442.91;5013812;28;20862;-87
2021/12/03 07:57:07;;;;;;;145.47;68.23;;;;;;;4.00;91.15;98266.19;5003441;28;20532;-84
2021/12/03 07:59:33;;;;;;;167.80;73.63;;;;;;;4.51;88.46;98325.53;4995201;28;20996;-85
2021/12/03 08:01:58;;;;;;;86.27;42.07;;;;;;;6.22;86.94;98496.94;4993759;28;20245;-86
2021/12/03 08:04:24;;;;;;;125.97;62.77;;;;;;;7.71;83.84;98683.94;5013244;28;20251;-86
2021/12/03 08:06:52;;;;;;;65.53;35.70;;;;;;;6.65;83.04;98511.44;5015617;28;20230;-86
2021/12/03 08:09:18;;;;;;;53.07;28.17;;;;;;;8.00;80.73;98639.81;5013434;28;20258;-85
2021/12/03 08:11:44;;;;;;;55.30;30.33;;;;;;;5.96;78.95;98223.59;5012616;28;20449;-84
2021/12/03 08:14:09;;;;;;;55.27;30.30;;;;;;;6.67;76.54;98243.31;5015684;28;20174;-87
2021/12/03 08:16:34;;;;;;;65.13;33.67;;;;;;;6.85;75.43;98272.56;5012953;28;20213;-83
2021/12/03 08:19:00;;;;;;;65.97;35.53;;;;;;;7.75;79.27;98563.16;5013667;28;20241;-85
2021/12/03 08:21:25;;;;;;;52.90;30.17;;;;;;;7.02;79.17;98393.97;5013973;28;20155;-86
2021/12/03 08:23:51;;;;;;;63.13;37.33;;;;;;;8.75;77.11;98584.00;5012170;28;20177;-86
2021/12/03 08:26:17;;;;;;;91.77;45.00;;;;;;;9.91;72.67;98665.66;5013517;28;20193;-85
2021/12/03 08:28:42;;;;;;;78.37;40.27;;;;;;;8.30;72.68;98401.56;5012250;28;20174;-85
2021/12/03 08:31:14;;;;;;;48.03;26.13;;;;;;;7.24;71.50;98204.44;5014139;28;20219;-86
2021/12/03 08:33:39;;;;;;;80.73;42.80;;;;;;;8.87;72.96;98480.97;4996623;28;20174;-85
2021/12/03 08:36:05;;;;;;;86.20;49.93;;;;;;;8.49;71.09;98362.72;5013749;28;20218;-84
2021/12/03 08:38:30;;;;;;;57.83;32.03;;;;;;;10.58;68.99;98556.53;5013040;28;20166;-85
2021/12/03 08:40:56;;;;;;;47.17;28.67;;;;;;;11.54;65.60;98653.88;4993523;28;20163;-86
2021/12/03 08:43:21;;;;;;;40.77;24.30;;;;;;;8.68;67.42;98253.25;5014143;28;20189;-85
2021/12/03 08:45:52;;;;;;;40.70;22.80;;;;;;;9.97;66.91;98404.63;5014573;28;20194;-86
2021/12/03 08:48:18;;;;;;;54.43;32.00;;;;;;;8.80;68.86;98408.41;5015399;28;20243;-87
2021/12/03 08:50:52;;;;;;;67.50;38.07;;;;;;;10.44;69.66;98629.50;5010527;28;20198;-88
2021/12/03 08:56:03;;;;;;;70.10;36.03;;;;;;;8.17;71.50;98315.31;4995883;28;20233;-86
2021/12/03 08:58:28;;;;;;;44.13;24.93;;;;;;;8.62;72.77;98417.00;5012019;28;20175;-90
2021/12/03 09:00:53;;;;;;;47.47;26.97;;;;;;;9.61;73.00;98593.84;5016513;28;20209;-88
2021/12/03 09:03:19;;;;;;;50.47;27.33;;;;;;;7.96;72.57;98277.63;5019504;28;20178;-85
2021/12/03 09:05:46;;;;;;;57.13;32.00;;;;;;;8.10;73.41;98309.19;5015666;28;20360;-84
2021/12/03 09:08:12;;;;;;;51.67;26.40;;;;;;;9.97;73.12;98574.84;5011615;28;20181;-86
2021/12/03 09:10:38;;;;;;;40.57;24.97;;;;;;;9.40;72.44;98475.25;4987514;28;20584;-87
2021/12/03 09:13:05;;;;;;;57.53;34.03;;;;;;;9.88;72.27;98539.16;4993918;28;20262;-85
2021/12/03 09:15:37;;;;;;;64.43;33.70;;;;;;;8.22;72.66;98241.56;5012511;28;20174;-85
2021/12/03 09:18:20;;;;;;;47.03;26.03;;;;;;;10.42;71.41;98617.63;5013430;28;20205;-85
2021/12/03 09:20:56;;;;;;;61.30;35.20;;;;;;;8.45;73.06;98319.69;4996164;28;20190;-85
2021/12/03 09:25:56;;;;;;;69.93;39.00;;;;;;;8.51;74.67;98367.84;5013293;28;20198;-85
2021/12/03 09:28:26;;;;;;;65.80;35.53;;;;;;;10.04;74.71;98581.81;5012610;28;20233;-85
2021/12/03 09:30:53;;;;;;;39.63;22.13;;;;;;;7.54;74.22;98201.38;5011529;28;20171;-86
2021/12/03 09:33:22;;;;;;;36.70;22.17;;;;;;;9.93;75.13;98577.22;5011567;28;20175;-85
2021/12/03 09:35:51;;;;;;;40.00;23.60;;;;;;;7.90;73.34;98201.81;5013157;28;20222;-85
2021/12/03 09:38:16;;;;;;;40.37;22.00;;;;;;;8.34;73.21;98295.78;5011515;28;20174;-86
2021/12/03 09:40:42;;;;;;;37.20;22.07;;;;;;;9.71;73.67;98487.22;5010792;28;20175;-85
2021/12/03 09:43:08;;;;;;;40.17;22.90;;;;;;;10.30;72.67;98605.44;5010577;28;20573;-85
2021/12/03 09:45:36;;;;;;;41.07;24.80;;;;;;;8.65;72.03;98352.34;5011063;28;20203;-85
2021/12/03 09:48:09;;;;;;;45.10;24.93;;;;;;;9.18;70.04;98305.28;5011390;28;20634;-86
2021/12/03 09:50:35;;;;;;;104.00;48.93;;;;;;;10.21;67.70;98442.44;5013078;28;20163;-85
2021/12/03 09:55:37;;;;;;;73.63;40.67;;;;;;;9.98;67.63;98398.72;5006326;28;21190;-83
2021/12/03 09:58:16;;;;;;;61.83;35.33;;;;;;;9.53;65.95;98271.91;5019979;28;20202;-84
2021/12/03 10:00:56;;;;;;;72.87;37.93;;;;;;;11.04;65.36;98501.34;5018745;28;20204;-85
2021/12/03 10:19:31;;;;;;;83.17;38.77;;;;;;;11.42;65.49;98460.97;4937457;29;20236;-86
2021/12/03 10:30:10;;;;;;;89.90;47.30;;;;;;;10.79;65.65;98391.78;4936806;29;20240;-86
2021/12/03 10:32:44;;;;;;;59.87;33.57;;;;;;;11.22;65.27;98387.00;4934609;29;20248;-86
2021/12/03 10:43:17;;;;;;;51.07;30.37;;;;;;;11.73;66.99;98529.38;4933385;29;20268;-87
2021/12/03 13:17:07;;;;;;;170.20;78.87;;;;;;;10.15;77.44;98336.91;4936781;29;20208;-87
2021/12/03 13:22:48;;;;;;;218.83;94.80;;;;;;;10.89;79.10;98472.22;4840361;29;20216;-86
2021/12/03 14:03:04;;;;;;;127.40;62.47;;;;;;;10.02;89.05;98481.47;4917237;29;20189;-87
2021/12/03 15:00:12;;;;;;;109.40;54.43;;;;;;;9.14;95.52;98473.53;4917403;29;20257;-88
2021/12/03 15:08:16;;;;;;;274.70;127.10;;;;;;;7.59;99.84;98298.09;4922284;29;20225;-86
2021/12/03 15:13:29;;;;;;;103.97;52.50;;;;;;;7.94;98.23;98321.22;4923963;29;20178;-87
2021/12/03 15:27:02;;;;;;;185.83;96.37;;;;;;;7.20;98.13;98241.19;4921012;29;20205;-87
2021/12/03 15:32:00;;;;;;;162.03;83.90;;;;;;;6.36;98.33;98075.34;4989163;28;20198;-90
2021/12/03 15:55:58;;;;;;;440.57;233.03;;;;;;;5.98;100.00;98115.66;4979997;28;20199;-86
2021/12/03 15:58:34;;;;;;;466.67;267.50;;;;;;;6.26;100.00;98109.28;4979537;28;20195;-85
2021/12/03 16:03:55;;;;;;;391.97;213.63;;;;;;;8.61;100.00;98537.22;4976126;28;20171;-86
2021/12/03 16:06:28;;;;;;;372.60;184.30;;;;;;;6.83;100.00;98217.97;4976542;28;20191;-86
2021/12/03 16:08:57;;;;;;;359.13;166.20;;;;;;;6.30;100.00;98186.53;4966943;28;20192;-88
2021/12/03 16:54:42;;;;;;;168.93;86.20;;;;;;;6.89;100.00;98288.63;4897009;29;20206;-84
2021/12/03 16:57:07;;;;;;;154.93;80.03;;;;;;;7.62;100.00;98365.34;4941912;29;20681;-84
2021/12/03 16:59:33;;;;;;;155.77;73.90;;;;;;;8.39;100.00;98547.28;4941522;29;20745;-85
2021/12/03 17:23:24;;;;;;;264.00;118.70;;;;;;;8.46;100.00;98546.72;4953611;29;20227;-86
2021/12/03 17:49:38;;;;;;;239.07;117.23;;;;;;;7.01;100.00;98291.63;4974142;28;20198;-86
2021/12/03 17:55:14;;;;;;;128.20;62.20;;;;;;;8.11;100.00;98473.88;4978633;28;20263;-86
2021/12/03 18:00:17;;;;;;;281.47;140.83;;;;;;;8.59;100.00;98551.44;4974314;28;20156;-86
2021/12/03 18:02:46;;;;;;;480.00;297.23;;;;;;;8.06;100.00;98460.25;4977484;28;20148;-85
2021/12/03 18:10:57;;;;;;;309.57;152.17;;;;;;;7.92;100.00;98448.78;4980259;28;20262;-86
2021/12/03 18:13:55;;;;;;;510.40;295.63;;;;;;;7.78;100.00;98419.69;4979777;28;20576;-85
2021/12/03 18:43:23;;;;;;;602.63;345.00;;;;;;;8.62;100.00;98571.75;4990562;28;20263;-85
2021/12/03 18:51:51;;;;;;;140.10;69.93;;;;;;;6.44;100.00;98223.13;4976891;28;20251;-86
2021/12/03 18:57:11;;;;;;;133.07;62.23;;;;;;;7.86;100.00;98409.09;4954942;28;20229;-86
2021/12/03 18:59:40;;;;;;;111.97;56.47;;;;;;;7.24;100.00;98295.03;4955260;29;20180;-86
2021/12/03 19:02:07;;;;;;;107.73;52.97;;;;;;;6.63;100.00;98202.09;4954655;29;20199;-86